sensor_id;sensor_type;location;lat;lon;timestamp;P1;durP1;ratioP1;P2;durP2;ratioP2
72125;SDS011;59999;51.676;22.650;2024-02-26T00:01:40;27.25;;;11.32;;
72125;SDS011;59999;51.676;22.650;2024-02-26T00:04:06;26.60;;;12.02;;
72125;SDS011;59999;51.676;22.650;2024-02-26T00:06:32;25.17;;;11.83;;
72125;SDS011;59999;51.676;22.650;2024-02-26T00:08:58;24.40;;;10.88;;
72125;SDS011;59999;51.676;22.650;2024-02-26T00:11:24;23.45;;;10.98;;
72125;SDS011;59999;51.676;22.650;2024-02-26T00:13:49;24.47;;;10.70;;
72125;SDS011;59999;51.676;22.650;2024-02-26T00:16:15;24.75;;;11.18;;
72125;SDS011;59999;51.676;22.650;2024-02-26T00:18:41;25.37;;;11.43;;
72125;SDS011;59999;51.676;22.650;2024-02-26T00:21:07;23.83;;;11.35;;
72125;SDS011;59999;51.676;22.650;2024-02-26T00:23:33;25.33;;;11.25;;
72125;SDS011;59999;51.676;22.650;2024-02-26T00:25:58;26.67;;;11.60;;
72125;SDS011;59999;51.676;22.650;2024-02-26T00:28:24;24.30;;;11.05;;
72125;SDS011;59999;51.676;22.650;2024-02-26T00:30:50;22.40;;;10.83;;
72125;SDS011;59999;51.676;22.650;2024-02-26T00:33:21;24.92;;;11.38;;
72125;SDS011;59999;51.676;22.650;2024-02-26T00:35:49;26.05;;;11.45;;
72125;SDS011;59999;51.676;22.650;2024-02-26T00:38:14;21.48;;;10.40;;
72125;SDS011;59999;51.676;22.650;2024-02-26T00:40:40;24.65;;;11.27;;
72125;SDS011;59999;51.676;22.650;2024-02-26T00:43:07;25.63;;;10.73;;
72125;SDS011;59999;51.676;22.650;2024-02-26T00:45:33;23.40;;;10.82;;
72125;SDS011;59999;51.676;22.650;2024-02-26T00:47:59;25.77;;;10.88;;
72125;SDS011;59999;51.676;22.650;2024-02-26T00:50:34;22.30;;;10.33;;
72125;SDS011;59999;51.676;22.650;2024-02-26T00:53:01;24.42;;;10.85;;
72125;SDS011;59999;51.676;22.650;2024-02-26T00:55:27;22.33;;;10.50;;
72125;SDS011;59999;51.676;22.650;2024-02-26T00:57:53;27.03;;;11.30;;
72125;SDS011;59999;51.676;22.650;2024-02-26T01:00:19;27.02;;;11.02;;
72125;SDS011;59999;51.676;22.650;2024-02-26T01:02:44;23.10;;;10.40;;
72125;SDS011;59999;51.676;22.650;2024-02-26T01:05:14;26.10;;;11.07;;
72125;SDS011;59999;51.676;22.650;2024-02-26T01:07:39;23.75;;;11.30;;
72125;SDS011;59999;51.676;22.650;2024-02-26T01:10:06;22.65;;;10.38;;
72125;SDS011;59999;51.676;22.650;2024-02-26T01:12:34;23.73;;;11.10;;
72125;SDS011;59999;51.676;22.650;2024-02-26T01:15:01;24.63;;;11.07;;
72125;SDS011;59999;51.676;22.650;2024-02-26T01:17:31;25.52;;;11.07;;
72125;SDS011;59999;51.676;22.650;2024-02-26T01:19:57;24.40;;;10.65;;
72125;SDS011;59999;51.676;22.650;2024-02-26T01:22:22;21.73;;;10.43;;
72125;SDS011;59999;51.676;22.650;2024-02-26T01:24:48;25.67;;;10.60;;
72125;SDS011;59999;51.676;22.650;2024-02-26T01:27:14;24.77;;;10.77;;
72125;SDS011;59999;51.676;22.650;2024-02-26T01:29:41;21.17;;;9.82;;
72125;SDS011;59999;51.676;22.650;2024-02-26T01:32:07;22.00;;;10.50;;
72125;SDS011;59999;51.676;22.650;2024-02-26T01:34:33;22.30;;;9.80;;
72125;SDS011;59999;51.676;22.650;2024-02-26T01:36:59;20.33;;;9.37;;
72125;SDS011;59999;51.676;22.650;2024-02-26T01:39:25;22.98;;;10.32;;
72125;SDS011;59999;51.676;22.650;2024-02-26T01:41:50;22.17;;;9.43;;
72125;SDS011;59999;51.676;22.650;2024-02-26T01:44:16;22.77;;;9.33;;
72125;SDS011;59999;51.676;22.650;2024-02-26T01:46:42;22.20;;;9.80;;
72125;SDS011;59999;51.676;22.650;2024-02-26T01:49:08;22.48;;;9.77;;
72125;SDS011;59999;51.676;22.650;2024-02-26T01:51:38;20.77;;;9.07;;
72125;SDS011;59999;51.676;22.650;2024-02-26T01:54:05;22.73;;;10.52;;
72125;SDS011;59999;51.676;22.650;2024-02-26T01:56:33;20.70;;;9.25;;
72125;SDS011;59999;51.676;22.650;2024-02-26T01:59:01;21.65;;;8.77;;
72125;SDS011;59999;51.676;22.650;2024-02-26T02:01:27;24.00;;;8.98;;
72125;SDS011;59999;51.676;22.650;2024-02-26T02:03:58;23.37;;;9.53;;
72125;SDS011;59999;51.676;22.650;2024-02-26T02:06:25;22.08;;;9.15;;
72125;SDS011;59999;51.676;22.650;2024-02-26T02:08:56;21.40;;;9.15;;
72125;SDS011;59999;51.676;22.650;2024-02-26T02:11:21;17.98;;;8.25;;
72125;SDS011;59999;51.676;22.650;2024-02-26T02:13:47;19.40;;;8.85;;
72125;SDS011;59999;51.676;22.650;2024-02-26T02:16:13;17.30;;;7.88;;
72125;SDS011;59999;51.676;22.650;2024-02-26T02:18:39;18.15;;;7.95;;
72125;SDS011;59999;51.676;22.650;2024-02-26T02:21:05;21.90;;;8.83;;
72125;SDS011;59999;51.676;22.650;2024-02-26T02:23:31;17.23;;;7.78;;
72125;SDS011;59999;51.676;22.650;2024-02-26T02:25:57;18.42;;;8.05;;
72125;SDS011;59999;51.676;22.650;2024-02-26T02:28:25;17.65;;;8.02;;
72125;SDS011;59999;51.676;22.650;2024-02-26T02:30:52;19.50;;;8.50;;
72125;SDS011;59999;51.676;22.650;2024-02-26T02:33:19;23.85;;;9.55;;
72125;SDS011;59999;51.676;22.650;2024-02-26T02:35:46;20.20;;;8.70;;
72125;SDS011;59999;51.676;22.650;2024-02-26T02:38:12;18.43;;;8.27;;
72125;SDS011;59999;51.676;22.650;2024-02-26T02:40:38;21.20;;;8.88;;
72125;SDS011;59999;51.676;22.650;2024-02-26T02:43:04;21.90;;;8.10;;
72125;SDS011;59999;51.676;22.650;2024-02-26T02:45:30;18.53;;;8.03;;
72125;SDS011;59999;51.676;22.650;2024-02-26T02:47:56;17.88;;;7.53;;
72125;SDS011;59999;51.676;22.650;2024-02-26T02:50:21;19.45;;;8.45;;
72125;SDS011;59999;51.676;22.650;2024-02-26T02:52:47;20.43;;;8.47;;
72125;SDS011;59999;51.676;22.650;2024-02-26T02:55:15;20.80;;;8.45;;
72125;SDS011;59999;51.676;22.650;2024-02-26T02:57:41;20.23;;;8.60;;
72125;SDS011;59999;51.676;22.650;2024-02-26T03:00:08;20.23;;;9.07;;
72125;SDS011;59999;51.676;22.650;2024-02-26T03:02:35;19.90;;;8.77;;
72125;SDS011;59999;51.676;22.650;2024-02-26T03:05:03;18.30;;;8.35;;
72125;SDS011;59999;51.676;22.650;2024-02-26T03:07:30;21.20;;;8.23;;
72125;SDS011;59999;51.676;22.650;2024-02-26T03:09:56;21.38;;;8.73;;
72125;SDS011;59999;51.676;22.650;2024-02-26T03:12:22;20.80;;;8.93;;
72125;SDS011;59999;51.676;22.650;2024-02-26T03:14:48;20.00;;;9.30;;
72125;SDS011;59999;51.676;22.650;2024-02-26T03:17:14;20.33;;;8.82;;
72125;SDS011;59999;51.676;22.650;2024-02-26T03:19:40;19.70;;;8.75;;
72125;SDS011;59999;51.676;22.650;2024-02-26T03:22:06;20.23;;;8.68;;
72125;SDS011;59999;51.676;22.650;2024-02-26T03:24:32;19.08;;;8.90;;
72125;SDS011;59999;51.676;22.650;2024-02-26T03:26:58;19.13;;;8.20;;
72125;SDS011;59999;51.676;22.650;2024-02-26T03:29:24;19.60;;;9.03;;
72125;SDS011;59999;51.676;22.650;2024-02-26T03:31:50;20.80;;;9.40;;
72125;SDS011;59999;51.676;22.650;2024-02-26T03:34:15;20.43;;;9.20;;
72125;SDS011;59999;51.676;22.650;2024-02-26T03:36:43;19.02;;;9.05;;
72125;SDS011;59999;51.676;22.650;2024-02-26T03:39:08;19.23;;;8.63;;
72125;SDS011;59999;51.676;22.650;2024-02-26T03:41:35;20.45;;;8.65;;
72125;SDS011;59999;51.676;22.650;2024-02-26T03:44:01;19.87;;;9.23;;
72125;SDS011;59999;51.676;22.650;2024-02-26T03:46:28;21.70;;;8.98;;
72125;SDS011;59999;51.676;22.650;2024-02-26T03:48:53;20.93;;;9.77;;
72125;SDS011;59999;51.676;22.650;2024-02-26T03:51:19;19.38;;;9.43;;
72125;SDS011;59999;51.676;22.650;2024-02-26T03:53:45;21.38;;;9.95;;
72125;SDS011;59999;51.676;22.650;2024-02-26T03:56:11;22.83;;;9.87;;
72125;SDS011;59999;51.676;22.650;2024-02-26T03:58:38;22.30;;;10.40;;
72125;SDS011;59999;51.676;22.650;2024-02-26T04:01:06;23.67;;;10.75;;
72125;SDS011;59999;51.676;22.650;2024-02-26T04:03:32;22.63;;;9.80;;
72125;SDS011;59999;51.676;22.650;2024-02-26T04:05:59;23.35;;;10.60;;
72125;SDS011;59999;51.676;22.650;2024-02-26T04:08:24;24.80;;;10.83;;
72125;SDS011;59999;51.676;22.650;2024-02-26T04:10:50;28.20;;;11.48;;
72125;SDS011;59999;51.676;22.650;2024-02-26T04:13:16;23.77;;;10.40;;
72125;SDS011;59999;51.676;22.650;2024-02-26T04:15:42;26.52;;;11.25;;
72125;SDS011;59999;51.676;22.650;2024-02-26T04:18:08;26.13;;;11.30;;
72125;SDS011;59999;51.676;22.650;2024-02-26T04:20:34;23.33;;;10.73;;
72125;SDS011;59999;51.676;22.650;2024-02-26T04:23:00;25.27;;;11.15;;
72125;SDS011;59999;51.676;22.650;2024-02-26T04:25:26;26.83;;;10.93;;
72125;SDS011;59999;51.676;22.650;2024-02-26T04:27:52;25.90;;;11.45;;
72125;SDS011;59999;51.676;22.650;2024-02-26T04:30:19;24.27;;;11.05;;
72125;SDS011;59999;51.676;22.650;2024-02-26T04:32:44;25.58;;;11.05;;
72125;SDS011;59999;51.676;22.650;2024-02-26T04:35:10;26.00;;;11.53;;
72125;SDS011;59999;51.676;22.650;2024-02-26T04:37:37;23.77;;;10.95;;
72125;SDS011;59999;51.676;22.650;2024-02-26T04:40:03;25.45;;;10.98;;
72125;SDS011;59999;51.676;22.650;2024-02-26T04:42:30;26.80;;;12.23;;
72125;SDS011;59999;51.676;22.650;2024-02-26T04:44:56;31.47;;;13.80;;
72125;SDS011;59999;51.676;22.650;2024-02-26T04:47:21;26.42;;;11.63;;
72125;SDS011;59999;51.676;22.650;2024-02-26T04:49:49;28.33;;;11.20;;
72125;SDS011;59999;51.676;22.650;2024-02-26T04:52:15;25.05;;;11.50;;
72125;SDS011;59999;51.676;22.650;2024-02-26T04:54:41;25.65;;;11.07;;
72125;SDS011;59999;51.676;22.650;2024-02-26T04:57:06;25.55;;;11.50;;
72125;SDS011;59999;51.676;22.650;2024-02-26T04:59:32;25.23;;;11.07;;
72125;SDS011;59999;51.676;22.650;2024-02-26T05:01:58;26.00;;;12.48;;
72125;SDS011;59999;51.676;22.650;2024-02-26T05:04:24;26.42;;;11.18;;
72125;SDS011;59999;51.676;22.650;2024-02-26T05:06:49;28.48;;;11.73;;
72125;SDS011;59999;51.676;22.650;2024-02-26T05:09:15;27.13;;;10.77;;
72125;SDS011;59999;51.676;22.650;2024-02-26T05:11:41;24.60;;;11.13;;
72125;SDS011;59999;51.676;22.650;2024-02-26T05:14:07;26.60;;;11.40;;
72125;SDS011;59999;51.676;22.650;2024-02-26T05:16:33;25.83;;;10.63;;
72125;SDS011;59999;51.676;22.650;2024-02-26T05:18:59;26.35;;;11.70;;
72125;SDS011;59999;51.676;22.650;2024-02-26T05:21:25;27.08;;;11.73;;
72125;SDS011;59999;51.676;22.650;2024-02-26T05:23:51;27.42;;;12.25;;
72125;SDS011;59999;51.676;22.650;2024-02-26T05:26:22;26.70;;;11.70;;
72125;SDS011;59999;51.676;22.650;2024-02-26T05:28:48;26.50;;;12.20;;
72125;SDS011;59999;51.676;22.650;2024-02-26T05:31:15;27.15;;;12.05;;
72125;SDS011;59999;51.676;22.650;2024-02-26T05:33:41;31.98;;;12.82;;
72125;SDS011;59999;51.676;22.650;2024-02-26T05:36:07;28.23;;;12.77;;
72125;SDS011;59999;51.676;22.650;2024-02-26T05:38:33;28.60;;;12.25;;
72125;SDS011;59999;51.676;22.650;2024-02-26T05:40:59;25.17;;;11.33;;
72125;SDS011;59999;51.676;22.650;2024-02-26T05:43:25;27.80;;;12.32;;
72125;SDS011;59999;51.676;22.650;2024-02-26T05:49:28;25.52;;;12.02;;
72125;SDS011;59999;51.676;22.650;2024-02-26T05:51:55;26.35;;;11.27;;
72125;SDS011;59999;51.676;22.650;2024-02-26T05:54:21;28.67;;;12.77;;
72125;SDS011;59999;51.676;22.650;2024-02-26T05:56:46;28.03;;;12.70;;
72125;SDS011;59999;51.676;22.650;2024-02-26T05:59:13;27.25;;;12.43;;
72125;SDS011;59999;51.676;22.650;2024-02-26T06:01:40;30.67;;;13.32;;
72125;SDS011;59999;51.676;22.650;2024-02-26T06:04:07;29.77;;;12.45;;
72125;SDS011;59999;51.676;22.650;2024-02-26T06:06:32;30.27;;;12.80;;
72125;SDS011;59999;51.676;22.650;2024-02-26T06:08:58;31.15;;;13.18;;
72125;SDS011;59999;51.676;22.650;2024-02-26T06:11:24;30.90;;;13.38;;
72125;SDS011;59999;51.676;22.650;2024-02-26T06:13:50;27.90;;;12.67;;
72125;SDS011;59999;51.676;22.650;2024-02-26T06:16:15;29.50;;;13.27;;
72125;SDS011;59999;51.676;22.650;2024-02-26T06:18:41;29.67;;;12.57;;
72125;SDS011;59999;51.676;22.650;2024-02-26T06:21:10;29.70;;;12.30;;
72125;SDS011;59999;51.676;22.650;2024-02-26T06:23:37;29.63;;;13.00;;
72125;SDS011;59999;51.676;22.650;2024-02-26T06:26:03;29.23;;;12.95;;
72125;SDS011;59999;51.676;22.650;2024-02-26T06:28:29;31.30;;;13.07;;
72125;SDS011;59999;51.676;22.650;2024-02-26T06:30:57;29.27;;;12.95;;
72125;SDS011;59999;51.676;22.650;2024-02-26T06:33:23;32.28;;;13.77;;
72125;SDS011;59999;51.676;22.650;2024-02-26T06:35:49;28.77;;;12.27;;
72125;SDS011;59999;51.676;22.650;2024-02-26T06:38:15;27.33;;;13.65;;
72125;SDS011;59999;51.676;22.650;2024-02-26T06:40:40;27.13;;;13.07;;
72125;SDS011;59999;51.676;22.650;2024-02-26T06:43:06;30.35;;;13.68;;
72125;SDS011;59999;51.676;22.650;2024-02-26T06:45:32;29.95;;;13.73;;
72125;SDS011;59999;51.676;22.650;2024-02-26T06:47:58;29.57;;;13.43;;
72125;SDS011;59999;51.676;22.650;2024-02-26T06:50:25;30.92;;;14.70;;
72125;SDS011;59999;51.676;22.650;2024-02-26T06:52:51;32.60;;;14.25;;
72125;SDS011;59999;51.676;22.650;2024-02-26T06:55:17;33.03;;;15.13;;
72125;SDS011;59999;51.676;22.650;2024-02-26T06:57:43;30.98;;;13.15;;
72125;SDS011;59999;51.676;22.650;2024-02-26T07:00:09;27.80;;;12.73;;
72125;SDS011;59999;51.676;22.650;2024-02-26T07:02:40;34.22;;;14.38;;
72125;SDS011;59999;51.676;22.650;2024-02-26T07:05:07;29.67;;;13.40;;
72125;SDS011;59999;51.676;22.650;2024-02-26T07:07:33;30.08;;;13.40;;
72125;SDS011;59999;51.676;22.650;2024-02-26T07:09:59;38.17;;;14.73;;
72125;SDS011;59999;51.676;22.650;2024-02-26T07:12:25;29.23;;;13.95;;
72125;SDS011;59999;51.676;22.650;2024-02-26T07:14:51;31.38;;;13.73;;
72125;SDS011;59999;51.676;22.650;2024-02-26T07:17:17;31.17;;;13.90;;
72125;SDS011;59999;51.676;22.650;2024-02-26T07:19:43;27.67;;;11.93;;
72125;SDS011;59999;51.676;22.650;2024-02-26T07:22:09;29.25;;;12.60;;
72125;SDS011;59999;51.676;22.650;2024-02-26T07:24:35;28.83;;;12.17;;
72125;SDS011;59999;51.676;22.650;2024-02-26T07:27:01;26.30;;;12.15;;
72125;SDS011;59999;51.676;22.650;2024-02-26T07:29:26;25.73;;;12.93;;
72125;SDS011;59999;51.676;22.650;2024-02-26T07:31:52;24.98;;;12.00;;
72125;SDS011;59999;51.676;22.650;2024-02-26T07:34:18;29.05;;;13.25;;
72125;SDS011;59999;51.676;22.650;2024-02-26T07:36:44;30.57;;;13.10;;
72125;SDS011;59999;51.676;22.650;2024-02-26T07:39:09;29.23;;;13.40;;
72125;SDS011;59999;51.676;22.650;2024-02-26T07:41:35;32.53;;;14.17;;
72125;SDS011;59999;51.676;22.650;2024-02-26T07:44:03;28.65;;;13.90;;
72125;SDS011;59999;51.676;22.650;2024-02-26T07:46:29;29.33;;;12.95;;
72125;SDS011;59999;51.676;22.650;2024-02-26T07:48:55;28.37;;;12.50;;
72125;SDS011;59999;51.676;22.650;2024-02-26T07:51:21;25.63;;;12.27;;
72125;SDS011;59999;51.676;22.650;2024-02-26T07:53:47;26.55;;;11.73;;
72125;SDS011;59999;51.676;22.650;2024-02-26T07:56:13;24.08;;;11.18;;
72125;SDS011;59999;51.676;22.650;2024-02-26T07:58:39;27.07;;;11.70;;
72125;SDS011;59999;51.676;22.650;2024-02-26T08:01:05;24.08;;;10.80;;
72125;SDS011;59999;51.676;22.650;2024-02-26T08:03:31;24.50;;;10.70;;
72125;SDS011;59999;51.676;22.650;2024-02-26T08:05:57;25.27;;;10.85;;
72125;SDS011;59999;51.676;22.650;2024-02-26T08:08:22;31.17;;;13.63;;
72125;SDS011;59999;51.676;22.650;2024-02-26T08:10:48;29.58;;;13.98;;
72125;SDS011;59999;51.676;22.650;2024-02-26T08:13:14;29.73;;;13.30;;
72125;SDS011;59999;51.676;22.650;2024-02-26T08:15:40;31.10;;;14.05;;
72125;SDS011;59999;51.676;22.650;2024-02-26T08:18:06;28.83;;;13.13;;
72125;SDS011;59999;51.676;22.650;2024-02-26T08:20:32;28.77;;;12.20;;
72125;SDS011;59999;51.676;22.650;2024-02-26T08:22:58;26.27;;;12.43;;
72125;SDS011;59999;51.676;22.650;2024-02-26T08:25:24;26.60;;;11.60;;
72125;SDS011;59999;51.676;22.650;2024-02-26T08:27:49;25.35;;;11.45;;
72125;SDS011;59999;51.676;22.650;2024-02-26T08:30:16;23.95;;;10.85;;
72125;SDS011;59999;51.676;22.650;2024-02-26T08:32:44;25.17;;;11.23;;
72125;SDS011;59999;51.676;22.650;2024-02-26T08:35:10;23.20;;;11.10;;
72125;SDS011;59999;51.676;22.650;2024-02-26T08:37:36;22.95;;;11.43;;
72125;SDS011;59999;51.676;22.650;2024-02-26T08:40:02;25.08;;;11.07;;
72125;SDS011;59999;51.676;22.650;2024-02-26T08:42:29;23.97;;;10.97;;
72125;SDS011;59999;51.676;22.650;2024-02-26T08:44:55;24.63;;;10.77;;
72125;SDS011;59999;51.676;22.650;2024-02-26T08:47:21;24.17;;;11.88;;
72125;SDS011;59999;51.676;22.650;2024-02-26T08:49:47;24.53;;;11.07;;
72125;SDS011;59999;51.676;22.650;2024-02-26T08:52:12;23.55;;;10.52;;
72125;SDS011;59999;51.676;22.650;2024-02-26T08:54:39;26.63;;;11.60;;
72125;SDS011;59999;51.676;22.650;2024-02-26T08:57:06;23.03;;;10.73;;
72125;SDS011;59999;51.676;22.650;2024-02-26T08:59:31;23.23;;;10.38;;
72125;SDS011;59999;51.676;22.650;2024-02-26T09:01:57;22.90;;;10.93;;
72125;SDS011;59999;51.676;22.650;2024-02-26T09:04:23;24.30;;;11.10;;
72125;SDS011;59999;51.676;22.650;2024-02-26T09:06:49;26.90;;;11.93;;
72125;SDS011;59999;51.676;22.650;2024-02-26T09:09:15;27.35;;;12.55;;
72125;SDS011;59999;51.676;22.650;2024-02-26T09:11:41;25.50;;;12.47;;
72125;SDS011;59999;51.676;22.650;2024-02-26T09:14:07;26.30;;;11.98;;
72125;SDS011;59999;51.676;22.650;2024-02-26T09:16:32;26.57;;;12.27;;
72125;SDS011;59999;51.676;22.650;2024-02-26T09:18:58;24.42;;;11.23;;
72125;SDS011;59999;51.676;22.650;2024-02-26T09:21:24;26.70;;;12.00;;
72125;SDS011;59999;51.676;22.650;2024-02-26T09:23:50;27.03;;;12.63;;
72125;SDS011;59999;51.676;22.650;2024-02-26T09:26:16;24.50;;;11.50;;
72125;SDS011;59999;51.676;22.650;2024-02-26T09:28:42;27.83;;;12.13;;
72125;SDS011;59999;51.676;22.650;2024-02-26T09:31:08;25.83;;;11.50;;
72125;SDS011;59999;51.676;22.650;2024-02-26T09:33:35;24.57;;;12.13;;
72125;SDS011;59999;51.676;22.650;2024-02-26T09:36:00;25.25;;;11.95;;
72125;SDS011;59999;51.676;22.650;2024-02-26T09:38:27;26.27;;;12.52;;
72125;SDS011;59999;51.676;22.650;2024-02-26T09:40:53;24.30;;;12.18;;
72125;SDS011;59999;51.676;22.650;2024-02-26T09:43:22;26.42;;;11.90;;
72125;SDS011;59999;51.676;22.650;2024-02-26T09:45:53;24.63;;;12.00;;
72125;SDS011;59999;51.676;22.650;2024-02-26T09:48:20;23.83;;;12.15;;
72125;SDS011;59999;51.676;22.650;2024-02-26T09:50:47;26.15;;;11.60;;
72125;SDS011;59999;51.676;22.650;2024-02-26T09:53:14;24.73;;;12.23;;
72125;SDS011;59999;51.676;22.650;2024-02-26T09:55:40;26.90;;;12.25;;
72125;SDS011;59999;51.676;22.650;2024-02-26T09:58:06;26.10;;;11.70;;
72125;SDS011;59999;51.676;22.650;2024-02-26T10:00:32;24.73;;;11.70;;
72125;SDS011;59999;51.676;22.650;2024-02-26T10:03:06;26.05;;;11.93;;
72125;SDS011;59999;51.676;22.650;2024-02-26T10:05:36;26.02;;;11.68;;
72125;SDS011;59999;51.676;22.650;2024-02-26T10:08:03;25.08;;;12.50;;
72125;SDS011;59999;51.676;22.650;2024-02-26T10:10:29;25.50;;;12.30;;
72125;SDS011;59999;51.676;22.650;2024-02-26T10:12:58;25.33;;;11.55;;
72125;SDS011;59999;51.676;22.650;2024-02-26T10:15:25;24.42;;;11.70;;
72125;SDS011;59999;51.676;22.650;2024-02-26T10:17:51;22.50;;;11.52;;
72125;SDS011;59999;51.676;22.650;2024-02-26T10:20:17;22.97;;;11.27;;
72125;SDS011;59999;51.676;22.650;2024-02-26T10:22:44;24.80;;;11.48;;
72125;SDS011;59999;51.676;22.650;2024-02-26T10:25:10;29.10;;;12.23;;
72125;SDS011;59999;51.676;22.650;2024-02-26T10:27:36;23.73;;;11.90;;
72125;SDS011;59999;51.676;22.650;2024-02-26T10:30:20;23.90;;;12.40;;
72125;SDS011;59999;51.676;22.650;2024-02-26T10:32:48;23.40;;;12.07;;
72125;SDS011;59999;51.676;22.650;2024-02-26T10:35:15;25.33;;;12.65;;
72125;SDS011;59999;51.676;22.650;2024-02-26T10:37:41;26.13;;;12.65;;
72125;SDS011;59999;51.676;22.650;2024-02-26T10:40:14;27.50;;;12.20;;
72125;SDS011;59999;51.676;22.650;2024-02-26T10:42:41;25.48;;;12.25;;
72125;SDS011;59999;51.676;22.650;2024-02-26T10:45:07;26.08;;;11.95;;
72125;SDS011;59999;51.676;22.650;2024-02-26T10:47:35;22.83;;;12.48;;
72125;SDS011;59999;51.676;22.650;2024-02-26T10:50:02;28.42;;;12.70;;
72125;SDS011;59999;51.676;22.650;2024-02-26T10:52:36;24.83;;;11.90;;
72125;SDS011;59999;51.676;22.650;2024-02-26T10:55:03;29.20;;;12.82;;
72125;SDS011;59999;51.676;22.650;2024-02-26T10:57:34;25.70;;;12.48;;
72125;SDS011;59999;51.676;22.650;2024-02-26T11:00:03;26.45;;;13.02;;
72125;SDS011;59999;51.676;22.650;2024-02-26T11:02:33;28.17;;;13.00;;
72125;SDS011;59999;51.676;22.650;2024-02-26T11:05:02;29.70;;;14.13;;
72125;SDS011;59999;51.676;22.650;2024-02-26T11:07:32;43.47;;;17.33;;
72125;SDS011;59999;51.676;22.650;2024-02-26T11:09:59;38.55;;;18.13;;
72125;SDS011;59999;51.676;22.650;2024-02-26T11:12:29;44.13;;;20.15;;
72125;SDS011;59999;51.676;22.650;2024-02-26T11:14:56;34.00;;;16.60;;
72125;SDS011;59999;51.676;22.650;2024-02-26T11:17:25;27.93;;;13.57;;
72125;SDS011;59999;51.676;22.650;2024-02-26T11:19:55;29.52;;;14.38;;
72125;SDS011;59999;51.676;22.650;2024-02-26T11:22:21;28.30;;;13.45;;
72125;SDS011;59999;51.676;22.650;2024-02-26T11:24:48;28.33;;;13.85;;
72125;SDS011;59999;51.676;22.650;2024-02-26T11:27:14;29.20;;;14.23;;
72125;SDS011;59999;51.676;22.650;2024-02-26T11:29:44;25.97;;;12.60;;
72125;SDS011;59999;51.676;22.650;2024-02-26T11:32:14;25.95;;;12.70;;
72125;SDS011;59999;51.676;22.650;2024-02-26T11:34:40;25.92;;;13.13;;
72125;SDS011;59999;51.676;22.650;2024-02-26T11:37:13;27.27;;;13.20;;
72125;SDS011;59999;51.676;22.650;2024-02-26T11:39:40;27.65;;;13.20;;
72125;SDS011;59999;51.676;22.650;2024-02-26T11:42:07;30.03;;;13.30;;
72125;SDS011;59999;51.676;22.650;2024-02-26T11:44:34;25.30;;;12.85;;
72125;SDS011;59999;51.676;22.650;2024-02-26T11:47:13;23.30;;;13.02;;
72125;SDS011;59999;51.676;22.650;2024-02-26T11:49:43;22.75;;;12.25;;
72125;SDS011;59999;51.676;22.650;2024-02-26T11:52:09;26.00;;;13.27;;
72125;SDS011;59999;51.676;22.650;2024-02-26T11:54:39;30.33;;;14.70;;
72125;SDS011;59999;51.676;22.650;2024-02-26T12:02:40;31.90;;;14.60;;
72125;SDS011;59999;51.676;22.650;2024-02-26T12:05:17;28.08;;;14.35;;
72125;SDS011;59999;51.676;22.650;2024-02-26T12:07:49;27.43;;;13.03;;
72125;SDS011;59999;51.676;22.650;2024-02-26T12:13:00;25.85;;;12.40;;
72125;SDS011;59999;51.676;22.650;2024-02-26T12:15:39;24.45;;;12.35;;
72125;SDS011;59999;51.676;22.650;2024-02-26T12:18:08;27.60;;;12.90;;
72125;SDS011;59999;51.676;22.650;2024-02-26T12:20:36;29.23;;;13.60;;
72125;SDS011;59999;51.676;22.650;2024-02-26T12:23:03;29.10;;;13.60;;
72125;SDS011;59999;51.676;22.650;2024-02-26T12:25:29;29.42;;;13.65;;
72125;SDS011;59999;51.676;22.650;2024-02-26T12:27:57;27.48;;;13.45;;
72125;SDS011;59999;51.676;22.650;2024-02-26T12:30:23;30.27;;;15.05;;
72125;SDS011;59999;51.676;22.650;2024-02-26T12:32:51;36.00;;;18.43;;
72125;SDS011;59999;51.676;22.650;2024-02-26T12:35:22;51.25;;;22.50;;
72125;SDS011;59999;51.676;22.650;2024-02-26T12:37:49;58.72;;;24.85;;
72125;SDS011;59999;51.676;22.650;2024-02-26T12:40:16;84.03;;;31.00;;
72125;SDS011;59999;51.676;22.650;2024-02-26T12:42:43;45.78;;;20.10;;
72125;SDS011;59999;51.676;22.650;2024-02-26T12:45:12;34.10;;;16.20;;
72125;SDS011;59999;51.676;22.650;2024-02-26T12:47:40;39.28;;;18.75;;
72125;SDS011;59999;51.676;22.650;2024-02-26T12:50:07;33.60;;;15.98;;
72125;SDS011;59999;51.676;22.650;2024-02-26T12:52:37;26.73;;;13.90;;
72125;SDS011;59999;51.676;22.650;2024-02-26T12:55:05;38.10;;;17.37;;
72125;SDS011;59999;51.676;22.650;2024-02-26T12:57:35;38.72;;;17.92;;
72125;SDS011;59999;51.676;22.650;2024-02-26T13:00:04;31.02;;;14.73;;
72125;SDS011;59999;51.676;22.650;2024-02-26T13:02:31;28.67;;;13.48;;
72125;SDS011;59999;51.676;22.650;2024-02-26T13:04:59;32.50;;;15.32;;
72125;SDS011;59999;51.676;22.650;2024-02-26T13:07:27;30.93;;;14.57;;
72125;SDS011;59999;51.676;22.650;2024-02-26T13:09:53;39.28;;;18.25;;
72125;SDS011;59999;51.676;22.650;2024-02-26T13:12:19;34.85;;;15.90;;
72125;SDS011;59999;51.676;22.650;2024-02-26T13:14:45;29.90;;;14.40;;
72125;SDS011;59999;51.676;22.650;2024-02-26T13:17:10;27.27;;;13.43;;
72125;SDS011;59999;51.676;22.650;2024-02-26T13:19:36;29.27;;;14.48;;
72125;SDS011;59999;51.676;22.650;2024-02-26T13:22:03;26.85;;;13.80;;
72125;SDS011;59999;51.676;22.650;2024-02-26T13:24:29;28.33;;;14.30;;
72125;SDS011;59999;51.676;22.650;2024-02-26T13:26:56;29.73;;;14.52;;
72125;SDS011;59999;51.676;22.650;2024-02-26T13:29:22;26.80;;;12.90;;
72125;SDS011;59999;51.676;22.650;2024-02-26T13:31:54;27.88;;;13.23;;
72125;SDS011;59999;51.676;22.650;2024-02-26T13:34:23;28.70;;;13.67;;
72125;SDS011;59999;51.676;22.650;2024-02-26T13:36:56;26.25;;;13.23;;
72125;SDS011;59999;51.676;22.650;2024-02-26T13:39:22;26.75;;;12.93;;
72125;SDS011;59999;51.676;22.650;2024-02-26T13:41:52;30.17;;;13.73;;
72125;SDS011;59999;51.676;22.650;2024-02-26T13:44:21;26.30;;;12.63;;
72125;SDS011;59999;51.676;22.650;2024-02-26T13:46:49;24.83;;;12.53;;
72125;SDS011;59999;51.676;22.650;2024-02-26T13:49:15;25.15;;;12.55;;
72125;SDS011;59999;51.676;22.650;2024-02-26T13:51:41;24.90;;;12.98;;
72125;SDS011;59999;51.676;22.650;2024-02-26T13:54:08;25.57;;;12.23;;
72125;SDS011;59999;51.676;22.650;2024-02-26T13:56:40;25.75;;;13.00;;
72125;SDS011;59999;51.676;22.650;2024-02-26T13:59:06;26.90;;;12.93;;
72125;SDS011;59999;51.676;22.650;2024-02-26T14:01:32;25.67;;;11.77;;
72125;SDS011;59999;51.676;22.650;2024-02-26T14:03:58;26.40;;;13.18;;
72125;SDS011;59999;51.676;22.650;2024-02-26T14:06:24;26.90;;;12.87;;
72125;SDS011;59999;51.676;22.650;2024-02-26T14:08:50;32.13;;;13.60;;
72125;SDS011;59999;51.676;22.650;2024-02-26T14:11:16;28.58;;;14.65;;
72125;SDS011;59999;51.676;22.650;2024-02-26T14:13:42;27.13;;;13.67;;
72125;SDS011;59999;51.676;22.650;2024-02-26T14:16:08;30.90;;;14.30;;
72125;SDS011;59999;51.676;22.650;2024-02-26T14:18:35;29.98;;;14.20;;
72125;SDS011;59999;51.676;22.650;2024-02-26T14:21:01;28.45;;;14.13;;